Time;durP1;ratioP1;P1;durP2;ratioP2;P2;SDS_P1;SDS_P2;PMS_P1;PMS_P2;Temp;Humidity;BMP_temperature;BMP_pressure;BME280_temperature;BME280_humidity;BME280_pressure;Samples;Min_cycle;Max_cycle;Signal;HPM_P1;HPM_P2
2023/12/24 00:02:08;;;;;;;4.65;2.50;;;;;;;7.08;60.98;94224.78;5107082;28;20024;-78
2023/12/24 00:04:33;;;;;;;5.75;2.22;;;;;;;7.12;60.97;94231.69;5108678;28;20016;-78
2023/12/24 00:06:59;;;;;;;4.32;2.58;;;;;;;7.28;60.76;94230.06;5106470;28;20040;-79
2023/12/24 00:09:24;;;;;;;3.90;2.10;;;;;;;7.41;60.14;94239.09;5108694;28;20423;-78
2023/12/24 00:11:50;;;;;;;5.93;2.63;;;;;;;7.48;59.77;94224.47;5108026;28;20023;-78
2023/12/24 00:14:15;;;;;;;4.30;1.90;;;;;;;7.53;59.69;94232.13;5106835;28;20482;-79
2023/12/24 00:16:41;;;;;;;4.60;1.95;;;;;;;7.67;59.39;94248.13;5108486;28;20035;-78
2023/12/24 00:19:07;;;;;;;7.95;2.10;;;;;;;7.75;59.21;94241.28;5108083;28;20393;-78
2023/12/24 00:21:32;;;;;;;2.30;1.70;;;;;;;7.88;58.56;94244.03;5108288;28;20015;-78
2023/12/24 00:23:57;;;;;;;4.35;2.10;;;;;;;7.93;58.71;94246.22;5106209;28;20030;-79
2023/12/24 00:26:23;;;;;;;2.75;1.88;;;;;;;8.12;57.89;94261.66;5108258;28;20047;-78
2023/12/24 00:28:50;;;;;;;3.20;1.85;;;;;;;8.11;57.13;94256.63;5107793;28;20079;-78
2023/12/24 00:31:16;;;;;;;6.05;1.80;;;;;;;8.23;57.17;94277.78;5108455;28;20098;-79
2023/12/24 00:33:41;;;;;;;6.57;4.53;;;;;;;8.25;57.06;94281.59;5108069;28;20020;-79
2023/12/24 00:36:07;;;;;;;12.32;6.28;;;;;;;8.28;56.96;94271.00;5107976;28;20016;-79
2023/12/24 00:38:32;;;;;;;4.70;2.50;;;;;;;8.42;56.60;94281.53;5107825;28;20496;-78
2023/12/24 00:40:57;;;;;;;6.38;2.63;;;;;;;8.54;55.73;94271.78;5107153;28;20015;-79
2023/12/24 00:43:23;;;;;;;3.88;1.70;;;;;;;8.53;55.47;94281.97;5108033;28;20494;-78
2023/12/24 00:45:49;;;;;;;4.45;1.70;;;;;;;8.64;54.62;94274.19;5105760;28;20101;-78
2023/12/24 00:48:14;;;;;;;5.72;1.48;;;;;;;8.77;54.32;94283.16;5107958;28;20028;-78
2023/12/24 00:50:40;;;;;;;3.08;1.77;;;;;;;8.79;54.15;94293.69;5107855;28;20692;-78
2023/12/24 00:53:05;;;;;;;7.18;1.88;;;;;;;8.86;54.33;94306.38;5107484;28;20110;-78
2023/12/24 00:55:31;;;;;;;4.45;1.80;;;;;;;8.82;54.42;94302.97;5107660;27;20054;-80
2023/12/24 00:57:57;;;;;;;3.25;1.90;;;;;;;8.98;53.88;94313.81;5105615;28;20023;-78
2023/12/24 01:00:22;;;;;;;3.50;1.58;;;;;;;8.99;53.79;94312.59;5107835;28;20099;-79
2023/12/24 01:02:47;;;;;;;4.85;2.10;;;;;;;9.04;53.91;94317.53;5106960;28;20024;-78
2023/12/24 01:05:13;;;;;;;3.85;1.80;;;;;;;9.07;53.61;94326.88;5107505;28;20042;-78
2023/12/24 01:07:39;;;;;;;5.25;2.10;;;;;;;9.05;53.84;94335.50;5106962;28;20028;-79
2023/12/24 01:10:06;;;;;;;8.35;1.83;;;;;;;9.13;52.03;94336.06;5106143;28;20510;-79
2023/12/24 01:12:32;;;;;;;4.03;1.77;;;;;;;9.09;51.86;94330.69;5105731;28;20035;-79
2023/12/24 01:14:58;;;;;;;5.25;2.13;;;;;;;9.13;51.35;94342.31;5107077;28;20043;-78
2023/12/24 01:17:23;;;;;;;3.00;1.50;;;;;;;9.18;50.70;94343.75;5107667;28;20034;-79
2023/12/24 01:19:49;;;;;;;2.78;1.50;;;;;;;9.13;50.60;94349.78;5106836;28;20023;-79
2023/12/24 01:22:14;;;;;;;4.22;1.30;;;;;;;9.16;50.46;94352.38;5107427;28;20020;-79
2023/12/24 01:24:39;;;;;;;2.72;1.58;;;;;;;9.14;50.48;94354.81;5107098;28;20505;-78
2023/12/24 01:27:05;;;;;;;2.38;1.33;;;;;;;9.11;50.19;94365.88;5107138;28;20586;-79
2023/12/24 01:29:31;;;;;;;4.95;2.05;;;;;;;9.11;50.01;94361.16;5106915;28;20023;-78
2023/12/24 01:31:57;;;;;;;2.88;1.23;;;;;;;9.03;50.09;94365.34;5105702;28;20073;-78
2023/12/24 01:34:22;;;;;;;1.85;1.23;;;;;;;9.01;50.33;94365.81;5107198;28;20016;-78
2023/12/24 01:36:48;;;;;;;4.28;1.38;;;;;;;9.02;50.02;94377.53;5106871;28;20079;-78
2023/12/24 01:39:13;;;;;;;3.90;1.40;;;;;;;8.94;49.79;94368.75;5107153;28;20028;-79
2023/12/24 01:41:39;;;;;;;2.10;0.90;;;;;;;8.94;49.97;94362.50;5106399;28;20024;-78
2023/12/24 01:44:04;;;;;;;1.80;1.00;;;;;;;8.96;49.58;94354.63;5088350;28;20024;-78
2023/12/24 01:46:31;;;;;;;3.28;1.02;;;;;;;8.93;49.18;94366.47;5104835;28;20123;-78
2023/12/24 01:48:56;;;;;;;2.42;1.33;;;;;;;8.88;49.29;94367.78;5106444;28;20019;-78
2023/12/24 01:51:22;;;;;;;2.47;1.30;;;;;;;8.74;49.47;94362.75;5105055;28;20026;-78
2023/12/24 01:53:49;;;;;;;2.95;1.30;;;;;;;8.70;49.40;94360.09;5106407;28;20124;-78
2023/12/24 01:56:16;;;;;;;2.55;1.10;;;;;;;8.70;49.15;94376.53;5106699;28;20024;-78
2023/12/24 01:58:42;;;;;;;1.88;1.00;;;;;;;8.70;49.17;94364.81;5105966;28;20548;-78
2023/12/24 02:01:07;;;;;;;2.15;1.20;;;;;;;8.64;49.31;94380.28;5088086;28;20027;-78
2023/12/24 02:03:32;;;;;;;3.35;1.33;;;;;;;8.68;49.02;94378.19;5104570;28;20046;-79
2023/12/24 02:05:58;;;;;;;3.10;1.30;;;;;;;8.63;49.10;94387.72;5106521;28;20114;-79
2023/12/24 02:08:23;;;;;;;1.70;1.00;;;;;;;8.63;48.86;94386.97;5105075;28;20020;-79
2023/12/24 02:10:49;;;;;;;3.47;1.13;;;;;;;8.57;48.17;94394.19;5106449;28;20512;-78
2023/12/24 02:13:15;;;;;;;2.95;1.20;;;;;;;8.59;48.28;94398.00;5106445;28;20046;-79
2023/12/24 02:15:40;;;;;;;2.35;1.00;;;;;;;8.58;48.16;94396.47;5106183;28;20023;-78
2023/12/24 02:18:09;;;;;;;2.03;1.10;;;;;;;8.57;48.33;94402.41;5106115;28;20065;-78
2023/12/24 02:20:34;;;;;;;1.83;1.13;;;;;;;8.52;48.53;94395.50;5105755;28;20078;-78
2023/12/24 02:23:00;;;;;;;4.70;1.10;;;;;;;8.39;48.51;94405.66;5105900;28;20027;-78
2023/12/24 02:25:27;;;;;;;1.58;1.02;;;;;;;8.45;48.70;94409.41;5105687;28;20022;-77
2023/12/24 02:28:00;;;;;;;2.30;1.00;;;;;;;8.43;48.84;94409.06;5105351;28;20024;-78
2023/12/24 02:30:42;;;;;;;1.30;1.20;;;;;;;8.40;48.83;94407.19;5105014;28;20099;-78
2023/12/24 02:33:08;;;;;;;1.50;1.00;;;;;;;8.31;49.33;94405.06;5104308;28;20086;-79
2023/12/24 02:35:35;;;;;;;2.10;1.20;;;;;;;8.36;48.82;94409.25;5104913;28;20085;-77
2023/12/24 02:38:01;;;;;;;2.25;1.25;;;;;;;8.29;49.13;94404.72;5104011;28;20062;-78
2023/12/24 02:40:26;;;;;;;3.17;1.33;;;;;;;8.27;49.28;94414.59;5105047;28;20051;-78
2023/12/24 02:42:51;;;;;;;2.42;1.30;;;;;;;8.28;49.36;94411.41;5103944;28;20024;-78
2023/12/24 02:45:17;;;;;;;1.90;1.25;;;;;;;8.35;49.09;94424.13;5106333;28;20020;-78
2023/12/24 02:47:42;;;;;;;3.15;1.40;;;;;;;8.28;49.06;94424.34;5106428;28;20027;-78
2023/12/24 02:50:08;;;;;;;2.30;1.10;;;;;;;8.34;48.82;94417.13;5105712;28;20023;-77
2023/12/24 02:52:33;;;;;;;2.60;1.38;;;;;;;8.29;49.10;94420.41;5106356;28;20026;-78
2023/12/24 02:54:59;;;;;;;1.45;0.93;;;;;;;8.36;48.83;94429.19;5105630;28;20027;-78
2023/12/24 02:57:26;;;;;;;3.83;1.38;;;;;;;8.34;48.90;94425.34;5105922;28;20061;-78
2023/12/24 02:59:51;;;;;;;2.30;1.10;;;;;;;8.36;48.89;94433.91;5105266;28;20104;-79
2023/12/24 03:02:17;;;;;;;2.55;1.02;;;;;;;8.39;48.88;94433.81;5109516;28;20401;-79
2023/12/24 03:04:42;;;;;;;1.52;0.90;;;;;;;8.41;48.62;94431.41;5110080;28;20209;-78
2023/12/24 03:07:07;;;;;;;1.95;1.00;;;;;;;8.33;48.83;94432.03;5109880;28;20513;-78
2023/12/24 03:09:33;;;;;;;2.05;0.95;;;;;;;8.17;48.97;94425.41;5110016;28;20030;-79
2023/12/24 03:11:58;;;;;;;2.35;0.93;;;;;;;8.33;48.99;94440.25;5107502;28;20143;-79
2023/12/24 03:14:24;;;;;;;1.67;1.00;;;;;;;8.37;49.04;94458.16;5108192;28;20055;-79
2023/12/24 03:16:49;;;;;;;2.00;1.00;;;;;;;8.32;49.16;94450.44;5109357;28;20019;-79
2023/12/24 03:19:15;;;;;;;2.15;1.10;;;;;;;8.37;48.63;94451.88;5109363;28;20477;-78
2023/12/24 03:21:41;;;;;;;1.30;0.85;;;;;;;8.34;48.98;94458.22;5109228;28;20046;-78
2023/12/24 03:24:06;;;;;;;1.83;0.90;;;;;;;8.31;49.11;94451.63;5108401;28;20047;-78
2023/12/24 03:26:32;;;;;;;1.50;0.93;;;;;;;8.31;48.91;94464.53;5109226;28;20506;-79
2023/12/24 03:28:57;;;;;;;2.25;1.27;;;;;;;8.34;48.77;94466.44;5107643;28;20058;-79
2023/12/24 03:31:26;;;;;;;1.67;1.00;;;;;;;8.38;48.73;94481.59;5109386;28;20066;-79
2023/12/24 03:33:52;;;;;;;2.17;1.30;;;;;;;8.46;48.22;94484.91;5109235;28;20062;-78
2023/12/24 03:36:17;;;;;;;1.98;1.10;;;;;;;8.49;48.18;94490.28;5109889;28;20015;-78
2023/12/24 03:38:42;;;;;;;3.08;1.02;;;;;;;8.50;48.35;94485.56;5108699;28;20504;-79
2023/12/24 03:41:08;;;;;;;1.50;0.90;;;;;;;8.45;48.44;94495.09;5109236;28;20039;-80
2023/12/24 03:43:33;;;;;;;1.67;1.13;;;;;;;8.44;48.60;94504.50;5107389;28;20028;-79
2023/12/24 03:45:59;;;;;;;2.75;1.33;;;;;;;8.41;48.71;94516.31;5108862;28;20110;-79
2023/12/24 03:48:24;;;;;;;2.00;1.30;;;;;;;8.38;48.87;94517.19;5107699;28;20107;-79
2023/12/24 03:50:50;;;;;;;2.22;1.17;;;;;;;8.48;48.95;94523.56;5108425;28;20024;-78
2023/12/24 03:53:15;;;;;;;2.67;1.38;;;;;;;8.40;48.96;94523.00;5108956;28;20080;-79
2023/12/24 03:55:40;;;;;;;2.42;1.40;;;;;;;8.41;48.64;94524.53;5106898;28;20092;-79
2023/12/24 03:58:06;;;;;;;2.13;1.10;;;;;;;8.51;48.36;94526.22;5107148;28;20059;-77
2023/12/24 04:00:31;;;;;;;1.73;1.23;;;;;;;8.56;48.43;94530.41;5108421;28;20035;-78
2023/12/24 04:02:57;;;;;;;2.13;1.20;;;;;;;8.60;48.25;94544.78;5108840;28;20020;-77
2023/12/24 04:05:22;;;;;;;2.00;1.27;;;;;;;8.55;48.45;94550.03;5107129;28;20096;-77
2023/12/24 04:07:47;;;;;;;2.15;1.20;;;;;;;8.56;48.53;94546.09;5108601;28;20031;-78
2023/12/24 04:10:13;;;;;;;2.30;1.40;;;;;;;8.55;48.48;94555.50;5108756;28;20682;-79
2023/12/24 04:12:40;;;;;;;2.67;1.50;;;;;;;8.52;48.65;94568.09;5105694;28;20035;-78
2023/12/24 04:15:06;;;;;;;2.95;1.20;;;;;;;8.51;48.88;94563.81;5108202;28;20423;-77
2023/12/24 04:17:34;;;;;;;2.60;1.52;;;;;;;8.49;49.21;94572.47;5106687;28;20027;-78
2023/12/24 04:19:59;;;;;;;2.45;1.50;;;;;;;8.47;49.44;94568.59;5108799;28;20024;-78
2023/12/24 04:22:24;;;;;;;3.30;1.67;;;;;;;8.45;49.59;94565.53;5106763;28;20023;-79
2023/12/24 04:24:50;;;;;;;2.30;1.42;;;;;;;8.45;49.63;94573.75;5108513;28;20133;-78
2023/12/24 04:27:16;;;;;;;2.72;1.50;;;;;;;8.42;49.84;94558.19;5108211;28;20051;-79
2023/12/24 04:29:41;;;;;;;5.97;2.10;;;;;;;8.39;50.19;94578.22;5107705;28;20587;-78
2023/12/24 04:32:06;;;;;;;2.60;1.63;;;;;;;8.33;50.42;94574.44;5107932;28;20019;-78
2023/12/24 04:34:32;;;;;;;2.63;1.65;;;;;;;8.30;50.57;94580.78;5107890;28;20099;-77
2023/12/24 04:36:57;;;;;;;5.95;1.63;;;;;;;8.33;50.37;94593.63;5107875;28;20504;-78
2023/12/24 04:39:24;;;;;;;3.75;1.52;;;;;;;8.34;50.08;94589.66;5106174;28;20031;-78
2023/12/24 04:41:50;;;;;;;2.95;1.33;;;;;;;8.35;50.21;94586.50;5108246;28;20023;-77
2023/12/24 04:44:15;;;;;;;2.20;1.45;;;;;;;8.31;50.35;94590.53;5107671;28;20031;-78
2023/12/24 04:46:42;;;;;;;1.70;1.23;;;;;;;8.28;50.29;94592.16;5107583;28;20089;-78
2023/12/24 04:49:07;;;;;;;3.63;1.35;;;;;;;8.31;50.30;94588.53;5106384;28;20023;-78
2023/12/24 04:51:34;;;;;;;3.35;1.60;;;;;;;8.37;50.25;94592.38;5107370;28;20030;-78
2023/12/24 04:53:59;;;;;;;4.50;1.58;;;;;;;8.40;50.42;94594.22;5107387;28;20028;-79
2023/12/24 04:56:25;;;;;;;7.45;2.05;;;;;;;8.40;50.24;94594.22;5106974;28;20020;-78
2023/12/24 04:58:51;;;;;;;2.75;1.45;;;;;;;8.45;49.99;94601.91;5089460;28;20513;-77
2023/12/24 05:01:17;;;;;;;4.22;1.90;;;;;;;8.45;50.06;94606.63;5106976;28;20054;-79
2023/12/24 05:03:43;;;;;;;2.55;1.30;;;;;;;8.44;50.08;94610.56;5107787;28;20382;-79
2023/12/24 05:06:08;;;;;;;2.88;1.60;;;;;;;8.48;50.04;94611.22;5107286;28;20092;-79
2023/12/24 05:08:33;;;;;;;3.15;1.85;;;;;;;8.43;50.23;94631.72;5106920;28;20469;-79
2023/12/24 05:11:06;;;;;;;4.30;1.88;;;;;;;8.39;50.44;94622.81;5107262;28;20020;-79
2023/12/24 05:13:32;;;;;;;1.93;1.10;;;;;;;8.47;50.35;94626.13;5106454;28;20078;-78
2023/12/24 05:15:57;;;;;;;1.98;1.38;;;;;;;8.41;50.33;94633.34;5107355;28;20059;-78
2023/12/24 05:18:23;;;;;;;1.75;1.10;;;;;;;8.39;50.54;94647.47;5107015;28;20020;-78
2023/12/24 05:20:48;;;;;;;1.83;1.10;;;;;;;8.43;50.58;94644.63;5107302;28;20031;-78
2023/12/24 05:23:13;;;;;;;1.75;1.17;;;;;;;8.41;50.64;94644.28;5106861;28;20034;-78
2023/12/24 05:25:39;;;;;;;2.63;1.73;;;;;;;8.43;50.36;94647.38;5105781;28;20119;-77
2023/12/24 05:28:04;;;;;;;2.45;1.40;;;;;;;8.41;50.66;94650.53;5106792;28;20109;-79
2023/12/24 05:30:29;;;;;;;2.83;1.60;;;;;;;8.46;50.08;94643.78;5106743;28;20054;-77
2023/12/24 05:32:55;;;;;;;2.95;1.50;;;;;;;8.55;50.10;94626.75;5106981;28;20058;-78
2023/12/24 05:35:20;;;;;;;1.77;1.45;;;;;;;8.55;49.83;94626.75;5106309;28;20429;-79
2023/12/24 05:37:46;;;;;;;2.22;1.13;;;;;;;8.55;49.63;94624.78;5107450;28;20111;-78
2023/12/24 05:40:12;;;;;;;1.60;0.90;;;;;;;8.51;49.96;94624.84;5106370;28;20039;-77
2023/12/24 05:42:37;;;;;;;1.90;1.20;;;;;;;8.56;49.97;94639.25;5105596;28;20019;-81
2023/12/24 05:45:03;;;;;;;1.80;1.30;;;;;;;8.66;49.65;94651.88;5106610;28;20558;-79
2023/12/24 05:47:29;;;;;;;2.13;1.40;;;;;;;8.64;49.73;94641.34;5104797;28;20051;-78
2023/12/24 05:49:54;;;;;;;1.50;0.90;;;;;;;8.61;49.69;94636.75;5106741;28;20517;-78
2023/12/24 05:52:20;;;;;;;2.15;1.10;;;;;;;8.65;49.77;94636.63;5105745;28;20076;-78
2023/12/24 05:54:45;;;;;;;1.70;1.27;;;;;;;8.55;49.87;94627.50;5106843;28;20028;-78
2023/12/24 05:57:10;;;;;;;3.92;1.15;;;;;;;8.49;49.94;94629.22;5104722;28;20054;-79
2023/12/24 05:59:37;;;;;;;1.80;1.00;;;;;;;8.55;50.10;94621.25;5106671;28;20019;-80
2023/12/24 06:02:02;;;;;;;2.50;1.30;;;;;;;8.52;50.13;94620.13;5104988;28;20032;-79
2023/12/24 06:04:28;;;;;;;2.70;1.50;;;;;;;8.55;50.06;94633.00;5104873;28;20379;-79
2023/12/24 06:06:53;;;;;;;2.65;1.58;;;;;;;8.52;50.11;94633.84;5106395;28;20546;-78
2023/12/24 06:09:18;;;;;;;2.42;1.52;;;;;;;8.57;50.08;94644.28;5105829;28;20034;-78
2023/12/24 06:11:44;;;;;;;2.83;1.50;;;;;;;8.64;49.89;94641.34;5106216;28;20055;-79
2023/12/24 06:14:09;;;;;;;3.35;1.50;;;;;;;8.60;49.84;94635.22;5105486;28;20080;-78
2023/12/24 06:16:35;;;;;;;3.83;1.88;;;;;;;8.64;49.76;94641.34;5105087;28;20023;-79
2023/12/24 06:19:00;;;;;;;2.03;1.40;;;;;;;8.72;49.53;94648.19;5105848;28;20034;-79
2023/12/24 06:21:25;;;;;;;3.33;1.40;;;;;;;8.74;49.67;94647.75;5106325;28;20066;-79
2023/12/24 06:23:52;;;;;;;2.65;1.50;;;;;;;8.69;49.80;94648.28;5104828;28;20019;-79
2023/12/24 06:26:18;;;;;;;2.40;1.33;;;;;;;8.73;49.77;94651.72;5105806;28;20058;-78
2023/12/24 06:28:43;;;;;;;2.65;1.45;;;;;;;8.68;49.97;94652.22;5105991;28;20479;-79
2023/12/24 06:31:09;;;;;;;2.30;1.45;;;;;;;8.62;50.05;94657.47;5105504;28;20098;-79
2023/12/24 06:33:35;;;;;;;2.53;1.30;;;;;;;8.66;50.07;94658.16;5106294;28;20055;-79
2023/12/24 06:36:00;;;;;;;4.70;1.63;;;;;;;8.72;49.88;94647.44;5105750;28;20118;-79
2023/12/24 06:38:26;;;;;;;2.67;1.30;;;;;;;8.65;49.72;94653.84;5110444;28;20127;-79
2023/12/24 06:40:51;;;;;;;3.75;1.52;;;;;;;8.59;49.98;94647.34;5110212;28;20066;-79
2023/12/24 06:43:16;;;;;;;2.58;1.27;;;;;;;8.68;49.77;94647.50;5110156;28;20035;-79
2023/12/24 06:45:43;;;;;;;2.72;1.30;;;;;;;8.69;49.85;94662.75;5108939;28;20067;-79
2023/12/24 06:48:09;;;;;;;3.35;1.10;;;;;;;8.70;49.75;94675.25;5107991;28;20526;-78
2023/12/24 06:50:35;;;;;;;1.95;1.00;;;;;;;8.74;49.33;94677.91;5110453;28;20102;-79
2023/12/24 06:53:01;;;;;;;3.70;1.42;;;;;;;8.84;49.05;94698.03;5108456;28;20127;-78
2023/12/24 06:55:26;;;;;;;3.60;1.60;;;;;;;8.85;49.17;94686.63;5110328;28;20027;-79
2023/12/24 06:57:52;;;;;;;3.47;2.08;;;;;;;8.86;49.10;94701.09;5110667;28;20023;-79
2023/12/24 07:00:17;;;;;;;2.63;1.55;;;;;;;8.89;49.05;94714.72;5109933;28;20055;-79
2023/12/24 07:02:43;;;;;;;2.20;1.50;;;;;;;9.00;48.84;94708.94;5108465;28;20023;-79
2023/12/24 07:05:08;;;;;;;3.20;1.52;;;;;;;9.04;48.51;94717.84;5109418;28;20255;-80
2023/12/24 07:07:33;;;;;;;2.22;1.20;;;;;;;9.02;48.77;94721.03;5110100;27;20034;-79
2023/12/24 07:09:59;;;;;;;3.05;1.00;;;;;;;9.02;48.36;94721.03;5109662;28;20031;-78
2023/12/24 07:12:24;;;;;;;2.03;1.05;;;;;;;9.01;48.56;94714.00;5109782;28;20039;-80
2023/12/24 07:14:49;;;;;;;2.65;1.40;;;;;;;9.10;48.76;94710.63;5109183;28;20516;-79
2023/12/24 07:17:15;;;;;;;3.25;1.60;;;;;;;9.12;48.41;94713.72;5109710;28;20027;-78
2023/12/24 07:19:41;;;;;;;3.75;1.75;;;;;;;9.21;48.19;94718.56;5109436;28;20058;-79
2023/12/24 07:22:06;;;;;;;2.17;1.30;;;;;;;9.25;48.00;94714.53;5107987;28;20019;-79
2023/12/24 07:24:32;;;;;;;4.70;2.50;;;;;;;9.32;48.00;94724.53;5109547;27;20099;-79
2023/12/24 07:26:57;;;;;;;4.97;2.42;;;;;;;9.39;47.61;94729.81;5108843;28;20024;-78
2023/12/24 07:29:22;;;;;;;5.28;2.08;;;;;;;9.39;47.59;94726.31;5109361;28;20035;-80
2023/12/24 07:31:48;;;;;;;5.47;1.70;;;;;;;9.45;47.40;94732.81;5108880;28;20390;-79
2023/12/24 07:34:13;;;;;;;3.50;1.75;;;;;;;9.47;47.62;94728.44;5109383;28;20055;-78
2023/12/24 07:36:39;;;;;;;6.20;2.65;;;;;;;9.47;47.58;94730.41;5109214;27;20012;-78
2023/12/24 07:39:04;;;;;;;5.50;2.67;;;;;;;9.53;47.90;94732.19;5109333;28;20031;-79
2023/12/24 07:41:31;;;;;;;6.88;2.38;;;;;;;9.56;47.51;94736.03;5107726;28;20457;-77
2023/12/24 07:43:56;;;;;;;4.97;2.50;;;;;;;9.63;47.72;94733.06;5108569;28;20038;-77
2023/12/24 07:46:22;;;;;;;4.30;2.20;;;;;;;9.67;47.28;94731.00;5108611;28;20027;-77
2023/12/24 07:48:47;;;;;;;3.90;1.95;;;;;;;9.75;47.14;94726.09;5107410;28;20023;-80
2023/12/24 07:51:12;;;;;;;4.80;1.73;;;;;;;9.91;46.66;94711.50;5109001;28;20104;-76
2023/12/24 07:53:38;;;;;;;5.20;2.00;;;;;;;9.99;46.55;94715.59;5108386;27;20435;-77
2023/12/24 07:56:03;;;;;;;4.20;1.92;;;;;;;10.00;45.79;94715.16;5109190;28;20055;-77
2023/12/24 07:58:29;;;;;;;4.65;2.10;;;;;;;10.08;45.98;94724.69;5108742;28;20032;-77
2023/12/24 08:00:54;;;;;;;4.80;2.13;;;;;;;10.23;46.16;94729.78;5108598;28;20059;-76
2023/12/24 08:03:20;;;;;;;3.47;1.83;;;;;;;10.40;45.48;94733.22;5108791;28;20023;-77
2023/12/24 08:05:45;;;;;;;6.60;2.05;;;;;;;10.49;45.26;94741.53;5108260;28;20046;-77
2023/12/24 08:08:10;;;;;;;6.55;2.70;;;;;;;10.68;45.61;94748.03;5108632;28;20043;-78
2023/12/24 08:10:36;;;;;;;6.53;4.45;;;;;;;10.77;45.47;94748.88;5108396;28;20552;-76
2023/12/24 08:13:02;;;;;;;7.30;4.07;;;;;;;10.90;44.84;94730.38;5106874;28;20038;-76
2023/12/24 08:15:27;;;;;;;9.02;5.15;;;;;;;10.99;45.34;94723.44;5108044;28;20031;-77
2023/12/24 08:17:52;;;;;;;10.13;4.70;;;;;;;11.12;45.08;94713.91;5108794;28;20076;-77
2023/12/24 08:20:21;;;;;;;3.63;2.20;;;;;;;11.26;43.62;94718.16;5108273;28;20020;-78
2023/12/24 08:22:46;;;;;;;2.65;2.10;;;;;;;11.33;42.14;94728.16;5106812;28;20142;-76
2023/12/24 08:25:12;;;;;;;2.33;1.30;;;;;;;11.49;42.29;94724.47;5108503;28;20517;-77
2023/12/24 08:27:37;;;;;;;2.70;1.30;;;;;;;11.65;41.99;94707.75;5107590;28;20031;-77
2023/12/24 08:30:03;;;;;;;2.70;1.40;;;;;;;12.15;41.00;94706.66;5108555;28;20149;-78
2023/12/24 08:32:28;;;;;;;3.78;1.77;;;;;;;12.47;40.85;94719.19;5107459;28;20031;-78
2023/12/24 08:34:54;;;;;;;4.70;1.45;;;;;;;12.61;39.62;94722.59;5108441;28;20016;-77
2023/12/24 08:37:19;;;;;;;3.22;1.30;;;;;;;13.01;39.28;94711.50;5107914;28;20030;-76
2023/12/24 08:39:44;;;;;;;2.60;1.00;;;;;;;14.72;35.86;94720.44;5108070;28;20418;-76
2023/12/24 08:42:10;;;;;;;5.88;1.77;;;;;;;16.38;33.10;94737.28;5107874;28;20020;-76
2023/12/24 08:44:35;;;;;;;2.58;1.20;;;;;;;17.84;30.99;94760.81;5107385;28;20106;-77
2023/12/24 08:47:01;;;;;;;8.40;4.38;;;;;;;19.15;29.80;94743.44;5108054;28;20370;-76
2023/12/24 08:49:26;;;;;;;11.80;6.22;;;;;;;20.57;28.78;94743.44;5107111;28;20031;-77
2023/12/24 08:51:52;;;;;;;8.52;5.97;;;;;;;21.63;28.04;94746.09;5106670;28;20170;-77
2023/12/24 08:54:17;;;;;;;8.13;6.40;;;;;;;22.67;26.74;94741.69;5107342;28;20458;-77
2023/12/24 08:56:42;;;;;;;10.50;7.05;;;;;;;23.45;25.67;94745.81;5108026;28;20553;-77
2023/12/24 08:59:08;;;;;;;10.77;7.65;;;;;;;24.21;24.36;94741.13;5107045;28;20064;-77
2023/12/24 09:01:33;;;;;;;7.30;5.03;;;;;;;24.50;23.47;94731.00;5106147;28;20023;-77
2023/12/24 09:04:00;;;;;;;7.20;4.40;;;;;;;25.13;22.64;94729.50;5107670;28;20424;-75
2023/12/24 09:06:26;;;;;;;5.30;3.30;;;;;;;25.62;21.59;94731.13;5106678;28;20023;-76
2023/12/24 09:08:52;;;;;;;5.75;3.03;;;;;;;26.39;20.76;94733.66;5107540;28;20034;-77
2023/12/24 09:11:17;;;;;;;4.60;2.30;;;;;;;26.96;19.44;94722.59;5106593;28;20110;-76
2023/12/24 09:13:43;;;;;;;9.48;2.70;;;;;;;27.48;19.06;94722.81;5107657;28;20119;-78
2023/12/24 09:16:08;;;;;;;4.28;2.25;;;;;;;27.80;18.68;94728.09;5105639;28;20031;-76
2023/12/24 09:18:33;;;;;;;3.50;2.13;;;;;;;28.48;18.04;94724.81;5107039;28;20028;-76
2023/12/24 09:20:59;;;;;;;2.75;1.90;;;;;;;29.04;16.98;94727.97;5107426;28;20053;-76
2023/12/24 09:23:24;;;;;;;3.60;2.30;;;;;;;29.58;16.48;94734.38;5106304;28;20051;-77
2023/12/24 09:25:49;;;;;;;3.90;2.17;;;;;;;30.09;15.94;94733.31;5107115;28;20024;-76
2023/12/24 09:28:15;;;;;;;4.18;1.40;;;;;;;30.36;15.76;94734.38;5106385;28;20019;-75
2023/12/24 09:30:40;;;;;;;3.65;1.45;;;;;;;30.98;15.40;94726.28;5107385;28;20478;-76
2023/12/24 09:33:06;;;;;;;2.50;1.25;;;;;;;31.57;14.86;94727.72;5106604;28;20051;-75
2023/12/24 09:35:31;;;;;;;2.78;1.17;;;;;;;31.96;14.24;94726.78;5107166;28;20031;-76
2023/12/24 09:37:57;;;;;;;2.92;1.40;;;;;;;32.47;14.00;94728.09;5107200;28;20038;-76
2023/12/24 09:40:22;;;;;;;1.70;1.00;;;;;;;32.30;14.21;94722.41;5106586;28;20500;-76
2023/12/24 09:42:48;;;;;;;3.08;1.88;;;;;;;31.81;14.76;94721.25;5106819;28;20058;-76
2023/12/24 09:45:13;;;;;;;3.50;1.88;;;;;;;30.99;14.78;94724.97;5104986;28;20031;-76
2023/12/24 09:47:40;;;;;;;6.25;2.55;;;;;;;30.39;15.62;94727.56;5107335;28;20019;-76
2023/12/24 09:50:06;;;;;;;4.78;2.10;;;;;;;29.99;15.36;94704.06;5104927;28;20026;-76
2023/12/24 09:52:33;;;;;;;6.38;2.00;;;;;;;28.57;16.04;94693.19;5106941;28;20024;-76
2023/12/24 09:54:58;;;;;;;2.97;2.00;;;;;;;27.60;17.00;94692.97;5106482;28;20327;-78
2023/12/24 09:57:24;;;;;;;2.65;1.23;;;;;;;27.96;16.81;94678.84;5105475;28;20478;-77
2023/12/24 09:59:49;;;;;;;3.08;1.60;;;;;;;28.27;16.42;94673.28;5106700;28;20478;-76
2023/12/24 10:02:15;;;;;;;3.97;1.88;;;;;;;27.79;16.78;94647.53;5104338;28;20033;-77
2023/12/24 10:04:40;;;;;;;3.90;1.58;;;;;;;27.52;17.01;94644.16;5106791;28;20127;-77
2023/12/24 10:07:06;;;;;;;2.25;1.40;;;;;;;28.02;16.85;94647.59;5105992;28;20084;-75
2023/12/24 10:09:49;;;;;;;2.90;1.08;;;;;;;28.20;16.76;94635.22;5106594;28;20108;-76
2023/12/24 10:12:14;;;;;;;4.50;1.00;;;;;;;28.17;16.53;94649.72;5103606;28;20028;-77
2023/12/24 10:14:41;;;;;;;3.83;1.30;;;;;;;28.75;15.82;94645.31;5106303;28;20375;-75
2023/12/24 10:17:07;;;;;;;4.15;1.30;;;;;;;29.03;15.76;94645.16;5105079;28;20026;-76
2023/12/24 10:19:32;;;;;;;3.67;1.35;;;;;;;29.05;15.86;94636.09;5104580;28;20036;-85
2023/12/24 10:22:05;;;;;;;4.72;1.20;;;;;;;29.49;15.36;94621.69;5105471;28;20047;-75
2023/12/24 10:24:32;;;;;;;4.78;1.35;;;;;;;29.59;15.53;94616.94;5105425;28;20039;-75
2023/12/24 10:27:05;;;;;;;4.40;1.40;;;;;;;29.82;15.66;94597.03;5106512;28;20127;-76
2023/12/24 10:29:31;;;;;;;5.75;1.70;;;;;;;29.73;15.70;94589.91;5105640;28;20020;-76
2023/12/24 10:31:57;;;;;;;5.43;1.50;;;;;;;29.86;15.50;94583.97;5106262;28;20072;-76
2023/12/24 10:34:23;;;;;;;6.28;2.00;;;;;;;29.99;15.28;94587.88;5106009;28;20011;-75
2023/12/24 10:36:49;;;;;;;4.35;1.70;;;;;;;30.42;14.98;94581.78;5106022;28;20409;-76
2023/12/24 10:39:24;;;;;;;5.88;1.98;;;;;;;30.92;14.70;94581.78;5105992;28;20092;-75
2023/12/24 10:41:58;;;;;;;6.75;1.92;;;;;;;31.00;14.56;94595.91;5105509;28;20111;-75
2023/12/24 10:44:24;;;;;;;5.70;2.60;;;;;;;31.47;14.32;94602.66;5106543;28;20043;-75
2023/12/24 10:46:50;;;;;;;7.68;2.65;;;;;;;30.64;15.29;94604.91;5105709;28;20104;-75
2023/12/24 10:49:16;;;;;;;4.32;1.80;;;;;;;28.95;15.93;94596.31;5105971;28;20472;-75
2023/12/24 10:51:42;;;;;;;3.38;1.58;;;;;;;28.37;16.82;94600.81;5105957;28;20027;-75
2023/12/24 10:54:07;;;;;;;6.53;3.67;;;;;;;28.05;16.79;94587.91;5105824;28;20035;-74
2023/12/24 10:56:47;;;;;;;8.18;4.47;;;;;;;28.12;16.85;94592.06;5104309;28;20091;-76
2023/12/24 10:59:21;;;;;;;5.57;2.10;;;;;;;27.52;17.26;94579.22;5104086;28;20486;-75
2023/12/24 11:01:48;;;;;;;5.85;2.50;;;;;;;26.48;18.23;94581.00;5104956;28;20108;-75
2023/12/24 11:04:47;;;;;;;4.05;1.85;;;;;;;25.73;18.92;94580.97;5105479;28;20076;-75
2023/12/24 11:07:33;;;;;;;4.18;2.08;;;;;;;24.96;19.89;94574.38;5105317;28;20413;-76
2023/12/24 11:10:02;;;;;;;4.13;1.63;;;;;;;24.56;20.17;94574.34;5106295;28;20032;-75
2023/12/24 11:12:31;;;;;;;4.85;2.10;;;;;;;24.42;20.39;94575.59;5105183;28;20031;-75
2023/12/24 11:14:57;;;;;;;6.18;2.35;;;;;;;25.22;19.64;94572.84;5105990;28;20047;-76
2023/12/24 11:17:49;;;;;;;3.65;2.30;;;;;;;24.04;20.71;94575.69;5105364;28;20024;-74
2023/12/24 11:20:20;;;;;;;5.10;2.08;;;;;;;23.52;21.25;94579.75;5095528;28;20032;-75
2023/12/24 11:23:04;;;;;;;3.55;1.90;;;;;;;23.19;21.97;94575.34;5108196;28;20034;-75
2023/12/24 11:25:43;;;;;;;3.15;1.88;;;;;;;22.85;22.53;94582.59;5109125;28;20034;-76
2023/12/24 11:28:29;;;;;;;5.82;2.13;;;;;;;25.05;20.36;94576.75;5109686;28;20031;-75
2023/12/24 11:30:57;;;;;;;4.68;1.98;;;;;;;24.82;20.58;94584.84;5101797;28;20032;-75
2023/12/24 11:33:44;;;;;;;6.88;2.22;;;;;;;25.68;19.78;94574.91;5108487;28;20050;-74
2023/12/24 11:36:11;;;;;;;4.93;2.17;;;;;;;23.89;21.59;94557.81;5109659;27;20065;-75